createdAt,value
2018-03-31T00:00:25.010Z,8.57
2018-03-31T00:01:25.000Z,8.53
2018-03-31T00:02:25.251Z,8.47
2018-03-31T00:03:24.946Z,8.4
2018-03-31T00:04:24.662Z,8.33
2018-03-31T00:05:24.958Z,8.35
2018-03-31T00:06:24.632Z,8.26
2018-03-31T00:07:24.930Z,8.26
2018-03-31T00:08:24.793Z,8.36
2018-03-31T00:09:25.106Z,8.21
2018-03-31T00:10:24.841Z,8.33
2018-03-31T00:11:25.083Z,8.21
2018-03-31T00:12:24.788Z,8.14
2018-03-31T00:13:24.768Z,8.17
2018-03-31T00:14:24.755Z,8.11
2018-03-31T00:15:25.018Z,8.08
2018-03-31T00:16:24.988Z,8.04
2018-03-31T00:17:24.428Z,8.04
2018-03-31T00:18:24.682Z,7.99
2018-03-31T00:19:24.394Z,8
2018-03-31T00:20:24.644Z,8.03
2018-03-31T00:21:24.908Z,7.96
2018-03-31T00:22:24.611Z,7.99
2018-03-31T00:23:24.852Z,8.02
2018-03-31T00:24:24.580Z,7.93
2018-03-31T00:25:24.286Z,7.94
2018-03-31T00:26:24.266Z,7.84
2018-03-31T00:27:24.786Z,7.81
2018-03-31T00:28:24.531Z,7.89
2018-03-31T00:29:24.475Z,7.87
2018-03-31T00:30:24.458Z,7.85
2018-03-31T00:31:24.443Z,7.85
2018-03-31T00:32:24.691Z,7.84
2018-03-31T00:33:24.426Z,7.89
2018-03-31T00:34:24.436Z,8.03
2018-03-31T00:35:24.100Z,8.02
2018-03-31T00:36:24.090Z,8.07
2018-03-31T00:37:24.328Z,8.11
2018-03-31T00:38:24.654Z,8.08
2018-03-31T00:39:24.293Z,8.12
2018-03-31T00:40:24.007Z,8.12
2018-03-31T00:41:23.994Z,8.11
2018-03-31T00:42:24.237Z,8.12
2018-03-31T00:43:24.216Z,8.14
2018-03-31T00:44:24.202Z,8.2
2018-03-31T00:45:24.446Z,8.21
2018-03-31T00:46:24.440Z,8.15
2018-03-31T00:47:24.417Z,8.11
2018-03-31T00:48:23.863Z,8.04
2018-03-31T00:49:24.122Z,8.03
2018-03-31T00:50:24.364Z,7.96
2018-03-31T00:51:24.078Z,7.94
2018-03-31T00:52:24.329Z,7.9
2018-03-31T00:53:24.037Z,7.81
2018-03-31T00:54:24.285Z,7.79
2018-03-31T00:55:23.737Z,7.82
2018-03-31T00:56:23.980Z,7.74
2018-03-31T00:57:23.962Z,7.79
2018-03-31T00:58:23.687Z,7.77
2018-03-31T00:59:24.194Z,7.72
2018-03-31T01:00:23.916Z,7.67
2018-03-31T01:01:24.163Z,7.59
2018-03-31T01:02:23.878Z,7.62
2018-03-31T01:03:23.854Z,7.59
2018-03-31T01:04:23.573Z,7.55
2018-03-31T01:05:23.816Z,7.53
2018-03-31T01:06:23.799Z,7.47
2018-03-31T01:07:24.058Z,7.37
2018-03-31T01:08:23.496Z,7.42
2018-03-31T01:09:24.015Z,7.37
2018-03-31T01:10:23.460Z,7.37
2018-03-31T01:11:23.709Z,7.29
2018-03-31T01:12:23.689Z,7.31
2018-03-31T01:13:23.401Z,7.24
2018-03-31T01:14:23.650Z,7.24
2018-03-31T01:15:23.642Z,7.22
2018-03-31T01:16:23.349Z,7.13
2018-03-31T01:17:23.328Z,7.16
2018-03-31T01:18:23.311Z,7.2
2018-03-31T01:19:23.832Z,7.24
2018-03-31T01:20:23.541Z,7.13
2018-03-31T01:21:23.780Z,7.26
2018-03-31T01:22:23.504Z,7.22
2018-03-31T01:23:23.797Z,7.2
2018-03-31T01:24:23.195Z,7.23
2018-03-31T01:25:23.178Z,7.22
2018-03-31T01:26:23.688Z,7.31
2018-03-31T01:27:23.408Z,7.32
2018-03-31T01:28:23.125Z,7.35
2018-03-31T01:29:23.111Z,7.4
2018-03-31T01:30:23.351Z,7.45
2018-03-31T01:31:23.332Z,7.44
2018-03-31T01:32:23.315Z,7.47
2018-03-31T01:33:23.558Z,7.45
2018-03-31T01:34:23.009Z,7.45
2018-03-31T01:35:23.261Z,7.47
2018-03-31T01:36:23.510Z,7.52
2018-03-31T01:37:23.220Z,7.56
2018-03-31T01:38:23.209Z,7.55
2018-03-31T01:39:23.180Z,7.55
2018-03-31T01:40:23.430Z,7.52
2018-03-31T01:41:23.412Z,7.56
2018-03-31T01:42:23.394Z,7.6
2018-03-31T01:43:23.377Z,7.55
2018-03-31T01:44:23.357Z,7.55
2018-03-31T01:45:23.072Z,7.6
2018-03-31T01:46:23.058Z,7.63
2018-03-31T01:47:22.767Z,7.55
2018-03-31T01:48:23.024Z,7.56
2018-03-31T01:49:23.268Z,7.55
2018-03-31T01:50:23.246Z,7.49
2018-03-31T01:51:22.959Z,7.47
2018-03-31T01:52:22.956Z,7.45
2018-03-31T01:53:22.660Z,7.47
2018-03-31T01:54:23.167Z,7.37
2018-03-31T01:55:22.895Z,7.35
2018-03-31T01:56:22.875Z,7.31
2018-03-31T01:57:23.115Z,7.26
2018-03-31T01:58:23.101Z,7.26
2018-03-31T01:59:23.085Z,7.17
2018-03-31T02:00:23.061Z,7.32
2018-03-31T02:01:22.834Z,7.12
2018-03-31T02:02:22.752Z,7.17
2018-03-31T02:03:22.737Z,7.12
2018-03-31T02:04:22.767Z,7.08
2018-03-31T02:05:22.963Z,7.13
2018-03-31T02:06:22.678Z,6.9
2018-03-31T02:07:22.672Z,6.95
2018-03-31T02:08:22.583Z,6.95
2018-03-31T02:09:22.630Z,7.01
2018-03-31T02:10:22.337Z,7.02
2018-03-31T02:11:22.582Z,6.99
2018-03-31T02:12:22.833Z,6.98
2018-03-31T02:13:22.551Z,6.84
2018-03-31T02:14:22.261Z,6.84
2018-03-31T02:15:22.513Z,6.91
2018-03-31T02:16:22.492Z,6.91
2018-03-31T02:17:22.210Z,6.83
2018-03-31T02:18:22.459Z,6.81
2018-03-31T02:19:22.707Z,6.83
2018-03-31T02:20:22.696Z,6.77
2018-03-31T02:21:22.395Z,6.71
2018-03-31T02:22:22.377Z,6.72
2018-03-31T02:23:22.361Z,6.79
2018-03-31T02:24:22.334Z,6.77
2018-03-31T02:25:22.340Z,6.69
2018-03-31T02:26:22.309Z,6.63
2018-03-31T02:27:22.020Z,6.65
2018-03-31T02:28:22.264Z,6.61
2018-03-31T02:29:22.249Z,6.59
2018-03-31T02:30:22.526Z,6.65
2018-03-31T02:31:22.481Z,6.62
2018-03-31T02:32:22.192Z,6.65
2018-03-31T02:33:22.442Z,6.59
2018-03-31T02:34:22.431Z,6.53
2018-03-31T02:35:22.400Z,6.59
2018-03-31T02:36:22.116Z,6.53
2018-03-31T02:37:22.363Z,6.56
2018-03-31T02:38:22.342Z,6.5
2018-03-31T02:39:21.796Z,6.35
2018-03-31T02:40:21.776Z,6.36
2018-03-31T02:41:22.020Z,6.46
2018-03-31T02:42:22.020Z,6.4
2018-03-31T02:43:21.717Z,6.35
2018-03-31T02:44:21.958Z,6.3
2018-03-31T02:45:21.945Z,6.29
2018-03-31T02:46:22.196Z,6.29
2018-03-31T02:47:22.170Z,6.21
2018-03-31T02:48:21.890Z,6.22
2018-03-31T02:49:21.603Z,6.33
2018-03-31T02:50:22.117Z,6.3
2018-03-31T02:51:21.558Z,6.33
2018-03-31T02:52:21.543Z,6.25
2018-03-31T02:53:21.787Z,6.3
2018-03-31T02:54:21.765Z,6.4
2018-03-31T02:55:22.014Z,6.43
2018-03-31T02:56:22.002Z,6.33
2018-03-31T02:57:21.985Z,6.4
2018-03-31T02:58:21.692Z,6.46
2018-03-31T02:59:21.954Z,6.47
2018-03-31T03:00:21.667Z,6.51
2018-03-31T03:01:21.641Z,6.58
2018-03-31T03:02:21.882Z,6.58
2018-03-31T03:03:21.602Z,6.61
2018-03-31T03:04:21.578Z,6.56
2018-03-31T03:05:21.555Z,6.71
2018-03-31T03:06:21.278Z,6.73
2018-03-31T03:07:21.522Z,6.68
2018-03-31T03:08:21.770Z,6.81
2018-03-31T03:09:21.742Z,6.77
2018-03-31T03:10:21.720Z,6.8
2018-03-31T03:11:21.171Z,6.89
2018-03-31T03:12:21.416Z,6.76
2018-03-31T03:13:21.138Z,6.62
2018-03-31T03:14:21.120Z,6.63
2018-03-31T03:15:21.356Z,6.63
2018-03-31T03:16:21.082Z,6.58
2018-03-31T03:17:21.325Z,6.58
2018-03-31T03:18:21.569Z,6.53
2018-03-31T03:19:21.279Z,6.47
2018-03-31T03:20:21.011Z,6.32
2018-03-31T03:21:21.591Z,6.35
2018-03-31T03:22:21.225Z,6.29
2018-03-31T03:23:21.207Z,6.32
2018-03-31T03:24:21.197Z,6.28
2018-03-31T03:25:21.171Z,6.32
2018-03-31T03:26:21.417Z,6.33
2018-03-31T03:27:20.863Z,6.35
2018-03-31T03:28:21.383Z,6.25
2018-03-31T03:29:20.831Z,6.3
2018-03-31T03:30:21.082Z,6.3
2018-03-31T03:31:21.065Z,6.3
2018-03-31T03:32:20.769Z,6.32
2018-03-31T03:33:21.012Z,6.32
2018-03-31T03:34:21.256Z,6.32
2018-03-31T03:35:20.705Z,6.28
2018-03-31T03:36:20.959Z,6.36
2018-03-31T03:37:20.932Z,6.33
2018-03-31T03:38:21.181Z,6.32
2018-03-31T03:39:20.894Z,6.29
2018-03-31T03:40:21.139Z,6.35
2018-03-31T03:41:20.592Z,6.29
2018-03-31T03:42:21.105Z,6.29
2018-03-31T03:43:20.817Z,6.36
2018-03-31T03:44:20.533Z,6.32
2018-03-31T03:45:20.516Z,6.25
2018-03-31T03:46:20.497Z,6.21
2018-03-31T03:47:20.741Z,6.29
2018-03-31T03:48:20.453Z,6.14
2018-03-31T03:49:20.441Z,6.1
2018-03-31T03:50:20.418Z,6.1
2018-03-31T03:51:20.397Z,6.11
2018-03-31T03:52:20.379Z,6.1
2018-03-31T03:53:20.626Z,6.1
2018-03-31T03:54:20.608Z,6.11
2018-03-31T03:55:20.581Z,6.11
2018-03-31T03:56:20.564Z,6.06
2018-03-31T03:57:20.548Z,6.03
2018-03-31T03:58:20.529Z,6.1
2018-03-31T03:59:20.238Z,6.04
2018-03-31T04:00:20.486Z,5.91
2018-03-31T04:01:20.205Z,5.91
2018-03-31T04:02:20.711Z,6.03
2018-03-31T04:03:20.691Z,5.98
2018-03-31T04:04:20.408Z,5.96
2018-03-31T04:05:20.660Z,5.98
2018-03-31T04:06:20.372Z,5.91
2018-03-31T04:07:20.349Z,6.01
2018-03-31T04:08:20.265Z,5.95
2018-03-31T04:09:20.578Z,6.01
2018-03-31T04:10:20.555Z,5.96
2018-03-31T04:11:20.539Z,5.86
2018-03-31T04:12:20.256Z,5.95
2018-03-31T04:13:20.231Z,5.98
2018-03-31T04:14:20.473Z,5.83
2018-03-31T04:15:20.198Z,5.88
2018-03-31T04:16:20.666Z,6.03
2018-03-31T04:17:20.230Z,5.88
2018-03-31T04:18:20.431Z,5.81
2018-03-31T04:19:20.379Z,5.75
2018-03-31T04:20:20.096Z,5.81
2018-03-31T04:21:19.850Z,5.71
2018-03-31T04:22:20.294Z,5.73
2018-03-31T04:23:20.054Z,5.74
2018-03-31T04:24:20.033Z,5.68
2018-03-31T04:25:20.279Z,5.64
2018-03-31T04:26:20.020Z,5.78
2018-03-31T04:27:20.247Z,5.71
2018-03-31T04:28:20.313Z,5.59
2018-03-31T04:29:19.648Z,5.53
2018-03-31T04:30:19.896Z,5.5
2018-03-31T04:31:19.876Z,5.5
2018-03-31T04:32:20.129Z,5.5
2018-03-31T04:33:20.243Z,5.46
2018-03-31T04:34:20.148Z,5.46
2018-03-31T04:35:19.979Z,5.45
2018-03-31T04:36:19.770Z,5.34
2018-03-31T04:37:19.494Z,5.3
2018-03-31T04:38:19.471Z,5.3
2018-03-31T04:39:19.984Z,5.34
2018-03-31T04:40:20.025Z,5.4
2018-03-31T04:41:19.993Z,5.27
2018-03-31T04:42:19.393Z,5.17
2018-03-31T04:43:20.036Z,5.13
2018-03-31T04:44:19.615Z,5.32
2018-03-31T04:45:19.864Z,5.19
2018-03-31T04:46:19.841Z,5.2
2018-03-31T04:47:19.825Z,5.22
2018-03-31T04:48:19.801Z,5.19
2018-03-31T04:49:19.662Z,5.16
2018-03-31T04:50:19.490Z,5.09
2018-03-31T04:51:19.481Z,5.12
2018-03-31T04:52:19.733Z,5.13
2018-03-31T04:53:19.773Z,5.2
2018-03-31T04:54:19.425Z,5.2
2018-03-31T04:55:19.472Z,5.05
2018-03-31T04:56:19.789Z,5.07
2018-03-31T04:57:19.391Z,5.02
2018-03-31T04:58:19.073Z,5.02
2018-03-31T04:59:19.398Z,5.09
2018-03-31T05:00:19.616Z,4.94
2018-03-31T05:01:19.553Z,4.99
2018-03-31T05:02:19.518Z,4.96
2018-03-31T05:03:18.977Z,4.94
2018-03-31T05:04:19.918Z,4.86
2018-03-31T05:05:19.277Z,4.86
2018-03-31T05:06:19.172Z,4.89
2018-03-31T05:07:19.151Z,4.92
2018-03-31T05:08:18.864Z,4.91
2018-03-31T05:09:19.417Z,4.8
2018-03-31T05:10:19.362Z,4.86
2018-03-31T05:11:19.377Z,4.96
2018-03-31T05:12:19.055Z,4.8
2018-03-31T05:13:19.032Z,4.75
2018-03-31T05:14:19.030Z,4.72
2018-03-31T05:15:19.262Z,4.88
2018-03-31T05:16:19.235Z,4.73
2018-03-31T05:17:19.220Z,4.77
2018-03-31T05:18:19.192Z,4.76
2018-03-31T05:19:19.184Z,4.77
2018-03-31T05:20:18.990Z,4.65
2018-03-31T05:21:19.474Z,4.76
2018-03-31T05:22:18.923Z,4.77
2018-03-31T05:23:18.571Z,4.62
2018-03-31T05:24:18.863Z,4.69
2018-03-31T05:25:19.187Z,4.73
2018-03-31T05:26:18.867Z,4.62
2018-03-31T05:27:18.747Z,4.73
2018-03-31T05:28:18.999Z,4.73
2018-03-31T05:29:18.706Z,4.58
2018-03-31T05:30:19.003Z,4.64
2018-03-31T05:31:18.787Z,4.7
2018-03-31T05:32:18.653Z,4.75
2018-03-31T05:33:18.891Z,4.69
2018-03-31T05:34:18.622Z,4.75
2018-03-31T05:35:18.595Z,4.65
2018-03-31T05:36:18.586Z,4.69
2018-03-31T05:37:18.290Z,4.62
2018-03-31T05:38:18.522Z,4.8
2018-03-31T05:39:18.516Z,4.79
2018-03-31T05:40:18.222Z,4.86
2018-03-31T05:41:18.475Z,4.8
2018-03-31T05:42:18.744Z,4.84
2018-03-31T05:43:18.432Z,4.84
2018-03-31T05:44:18.397Z,4.86
2018-03-31T05:45:18.124Z,4.79
2018-03-31T05:46:18.090Z,4.89
2018-03-31T05:47:18.676Z,4.86
2018-03-31T05:48:18.590Z,4.89
2018-03-31T05:49:18.645Z,4.91
2018-03-31T05:50:18.579Z,4.89
2018-03-31T05:51:18.259Z,4.88
2018-03-31T05:52:18.517Z,4.95
2018-03-31T05:53:17.953Z,4.86
2018-03-31T05:54:17.991Z,4.96
2018-03-31T05:55:17.976Z,5.01
2018-03-31T05:56:18.151Z,4.99
2018-03-31T05:57:18.167Z,4.98
2018-03-31T05:58:17.847Z,4.98
2018-03-31T05:59:18.105Z,4.94
2018-03-31T06:00:18.078Z,5.02
2018-03-31T06:01:17.788Z,5.07
2018-03-31T06:02:17.773Z,5.13
2018-03-31T06:03:18.297Z,5.04
2018-03-31T06:04:17.747Z,5.14
2018-03-31T06:05:18.237Z,5.13
2018-03-31T06:06:17.960Z,5.14
2018-03-31T06:07:18.203Z,5.14
2018-03-31T06:08:18.313Z,5.1
2018-03-31T06:09:18.162Z,5.27
2018-03-31T06:10:18.223Z,5.34
2018-03-31T06:11:18.118Z,5.34
2018-03-31T06:12:17.839Z,5.3
2018-03-31T06:13:17.811Z,5.49
2018-03-31T06:14:18.092Z,5.43
2018-03-31T06:15:17.977Z,5.45
2018-03-31T06:16:17.846Z,5.43
2018-03-31T06:17:18.032Z,5.55
2018-03-31T06:18:17.598Z,5.55
2018-03-31T06:19:17.687Z,5.59
2018-03-31T06:20:17.684Z,5.67
2018-03-31T06:21:17.643Z,5.68
2018-03-31T06:22:17.727Z,5.81
2018-03-31T06:23:17.623Z,5.73
2018-03-31T06:24:17.596Z,5.81
2018-03-31T06:25:17.769Z,5.77
2018-03-31T06:26:17.287Z,5.82
2018-03-31T06:27:17.376Z,5.86
2018-03-31T06:28:17.921Z,5.91
2018-03-31T06:29:17.834Z,5.96
2018-03-31T06:30:17.212Z,6.03
2018-03-31T06:31:17.536Z,5.92
2018-03-31T06:32:17.175Z,6
2018-03-31T06:33:17.415Z,6.09
2018-03-31T06:34:17.130Z,6.09
2018-03-31T06:35:17.639Z,6.28
2018-03-31T06:36:17.088Z,6.28
2018-03-31T06:37:17.369Z,6.38
2018-03-31T06:38:17.407Z,6.29
2018-03-31T06:39:17.333Z,6.36
2018-03-31T06:40:17.069Z,6.48
2018-03-31T06:41:17.109Z,6.54
2018-03-31T06:42:17.094Z,6.59
2018-03-31T06:43:17.486Z,6.62
2018-03-31T06:44:17.207Z,6.62
2018-03-31T06:45:17.009Z,6.68
2018-03-31T06:46:16.899Z,6.68
2018-03-31T06:47:17.153Z,6.79
2018-03-31T06:48:17.392Z,6.79
2018-03-31T06:49:16.844Z,6.91
2018-03-31T06:50:17.167Z,6.94
2018-03-31T06:51:17.177Z,6.94
2018-03-31T06:52:17.355Z,6.97
2018-03-31T06:53:17.298Z,7.07
2018-03-31T06:54:17.315Z,6.95
2018-03-31T06:55:17.058Z,6.98
2018-03-31T06:56:16.749Z,6.97
2018-03-31T06:57:16.746Z,7.05
2018-03-31T06:58:17.243Z,7.12
2018-03-31T06:59:16.919Z,7.16
2018-03-31T07:00:17.184Z,7.19
2018-03-31T07:01:17.167Z,7.15
2018-03-31T07:02:16.896Z,7.16
2018-03-31T07:03:17.125Z,7.31
2018-03-31T07:04:16.831Z,7.26
2018-03-31T07:05:17.112Z,7.22
2018-03-31T07:06:16.525Z,7.27
2018-03-31T07:07:17.055Z,7.24
2018-03-31T07:08:16.807Z,7.35
2018-03-31T07:09:16.519Z,7.37
2018-03-31T07:10:17.054Z,7.45
2018-03-31T07:11:16.460Z,7.45
2018-03-31T07:12:16.678Z,7.52
2018-03-31T07:13:16.664Z,7.52
2018-03-31T07:14:16.388Z,7.59
2018-03-31T07:15:16.643Z,7.6
2018-03-31T07:16:16.636Z,7.71
2018-03-31T07:17:16.855Z,7.67
2018-03-31T07:18:16.834Z,7.69
2018-03-31T07:19:16.559Z,7.72
2018-03-31T07:20:16.577Z,7.74
2018-03-31T07:21:16.515Z,7.75
2018-03-31T07:22:16.891Z,7.78
2018-03-31T07:23:16.749Z,7.84
2018-03-31T07:24:16.779Z,7.84
2018-03-31T07:25:16.723Z,7.96
2018-03-31T07:26:16.426Z,8.02
2018-03-31T07:27:16.179Z,7.99
2018-03-31T07:28:16.436Z,8
2018-03-31T07:29:16.368Z,8.03
2018-03-31T07:30:16.631Z,8.28
2018-03-31T07:31:16.348Z,8.26
2018-03-31T07:32:16.480Z,8.37
2018-03-31T07:33:16.306Z,8.25
2018-03-31T07:34:16.584Z,8.33
2018-03-31T07:35:16.260Z,8.35
2018-03-31T07:36:15.979Z,8.44
2018-03-31T07:37:16.285Z,8.47
2018-03-31T07:38:16.386Z,8.32
2018-03-31T07:39:16.192Z,8.47
2018-03-31T07:40:16.451Z,8.51
2018-03-31T07:41:16.576Z,8.54
2018-03-31T07:42:16.521Z,8.65
2018-03-31T07:43:16.061Z,8.73
2018-03-31T07:44:15.837Z,8.78
2018-03-31T07:45:16.474Z,8.84
2018-03-31T07:46:16.160Z,8.78
2018-03-31T07:47:16.123Z,8.93
2018-03-31T07:48:16.325Z,8.87
2018-03-31T07:49:16.319Z,8.91
2018-03-31T07:50:16.088Z,8.96
2018-03-31T07:51:16.269Z,8.93
2018-03-31T07:52:15.976Z,9.05
2018-03-31T07:53:16.218Z,8.93
2018-03-31T07:54:15.687Z,9.15
2018-03-31T07:55:15.653Z,9.18
2018-03-31T07:56:15.909Z,9.18
2018-03-31T07:57:16.066Z,9.21
2018-03-31T07:58:16.125Z,9.23
2018-03-31T07:59:15.585Z,9.32
2018-03-31T08:00:15.569Z,9.25
2018-03-31T08:01:16.081Z,9.31
2018-03-31T08:02:15.866Z,9.38
2018-03-31T08:03:15.783Z,9.39
2018-03-31T08:04:15.784Z,9.38
2018-03-31T08:05:16.021Z,9.38
2018-03-31T08:06:15.751Z,9.31
2018-03-31T08:07:15.724Z,9.46
2018-03-31T08:08:15.718Z,9.39
2018-03-31T08:09:15.895Z,9.46
2018-03-31T08:10:15.954Z,9.52
2018-03-31T08:11:15.386Z,9.61
2018-03-31T08:12:15.638Z,9.61
2018-03-31T08:13:15.616Z,9.61
2018-03-31T08:14:15.599Z,9.71
2018-03-31T08:15:15.585Z,9.81
2018-03-31T08:16:15.569Z,9.94
2018-03-31T08:17:15.287Z,9.93
2018-03-31T08:18:15.797Z,10.18
2018-03-31T08:19:15.542Z,10.51
2018-03-31T08:20:15.771Z,11.11
2018-03-31T08:21:15.763Z,11.8
2018-03-31T08:22:15.750Z,12.38
2018-03-31T08:23:15.461Z,12.95
2018-03-31T08:24:15.878Z,13.58
2018-03-31T08:25:15.448Z,14.16
2018-03-31T08:26:15.769Z,14.57
2018-03-31T08:27:15.690Z,14.98
2018-03-31T08:28:15.397Z,15.35
2018-03-31T08:29:15.390Z,15.79
2018-03-31T08:30:15.112Z,15.94
2018-03-31T08:31:15.623Z,16.26
2018-03-31T08:32:15.353Z,16.48
2018-03-31T08:33:15.072Z,16.53
2018-03-31T08:34:15.120Z,16.83
2018-03-31T08:35:15.334Z,16.96
2018-03-31T08:36:15.381Z,16.89
2018-03-31T08:37:15.297Z,16.83
2018-03-31T08:38:15.326Z,16.89
2018-03-31T08:39:15.284Z,16.83
2018-03-31T08:40:15.322Z,16.8
2018-03-31T08:41:15.664Z,16.78
2018-03-31T08:42:14.985Z,16.9
2018-03-31T08:43:14.974Z,17.08
2018-03-31T08:44:14.968Z,17.28
2018-03-31T08:45:15.494Z,17.48
2018-03-31T08:46:15.246Z,17.69
2018-03-31T08:47:15.385Z,17.82
2018-03-31T08:48:15.007Z,17.99
2018-03-31T08:49:15.255Z,17.84
2018-03-31T08:50:15.190Z,17.85
2018-03-31T08:51:14.978Z,17.59
2018-03-31T08:52:15.186Z,17.7
2018-03-31T08:53:15.168Z,17.54
2018-03-31T08:54:15.538Z,17.35
2018-03-31T08:55:15.413Z,17.29
2018-03-31T08:56:14.874Z,17.32
2018-03-31T08:57:15.131Z,17.41
2018-03-31T08:58:15.392Z,17.43
2018-03-31T08:59:15.488Z,17.46
2018-03-31T09:00:15.195Z,17.3
2018-03-31T09:01:15.394Z,17.15
2018-03-31T09:02:15.120Z,17.11
2018-03-31T09:03:15.127Z,17.15
2018-03-31T09:04:15.398Z,17.29
2018-03-31T09:05:14.904Z,17.18
2018-03-31T09:06:15.411Z,16.89
2018-03-31T09:07:14.787Z,16.65
2018-03-31T09:08:15.048Z,16.49
2018-03-31T09:09:15.623Z,16.33
2018-03-31T09:10:15.336Z,16.15
2018-03-31T09:11:15.029Z,16.18
2018-03-31T09:12:15.028Z,16.38
2018-03-31T09:13:15.094Z,16.52
2018-03-31T09:14:14.841Z,16.75
2018-03-31T09:15:15.018Z,16.71
2018-03-31T09:16:15.021Z,16.78
2018-03-31T09:17:15.381Z,16.71
2018-03-31T09:18:15.009Z,16.88
2018-03-31T09:19:14.763Z,17.07
2018-03-31T09:20:14.756Z,17.14
2018-03-31T09:21:14.952Z,17.3
2018-03-31T09:22:14.947Z,17.5
2018-03-31T09:23:15.016Z,17.48
2018-03-31T09:24:15.244Z,17.82
2018-03-31T09:25:14.695Z,18.12
2018-03-31T09:26:15.188Z,17.69
2018-03-31T09:27:15.174Z,17.47
2018-03-31T09:28:14.907Z,17.29
2018-03-31T09:29:15.136Z,17.32
2018-03-31T09:30:14.935Z,17.07
2018-03-31T09:31:14.973Z,17.15
2018-03-31T09:32:15.225Z,17.36
2018-03-31T09:33:15.166Z,17.53
2018-03-31T09:34:14.599Z,17.84
2018-03-31T09:35:14.596Z,17.82
2018-03-31T09:36:14.863Z,17.76
2018-03-31T09:37:14.847Z,17.81
2018-03-31T09:38:15.148Z,17.64
2018-03-31T09:39:15.155Z,17.35
2018-03-31T09:40:14.562Z,17.33
2018-03-31T09:41:14.669Z,17.23
2018-03-31T09:42:15.119Z,17.15
2018-03-31T09:43:15.145Z,16.89
2018-03-31T09:44:15.173Z,16.55
2018-03-31T09:45:15.153Z,16.25
2018-03-31T09:46:15.127Z,16.18
2018-03-31T09:47:15.112Z,16.12
2018-03-31T09:48:14.887Z,16.2
2018-03-31T09:49:14.775Z,16.27
2018-03-31T09:50:15.039Z,16.34
2018-03-31T09:51:15.024Z,16.52
2018-03-31T09:52:15.020Z,16.62
2018-03-31T09:53:15.026Z,16.58
2018-03-31T09:54:14.817Z,16.7
2018-03-31T09:55:14.801Z,16.81
2018-03-31T09:56:14.829Z,16.83
2018-03-31T09:57:14.784Z,16.56
2018-03-31T09:58:14.717Z,16.78
2018-03-31T09:59:14.453Z,16.81
2018-03-31T10:00:14.709Z,17.06
2018-03-31T10:01:14.433Z,17.06
2018-03-31T10:02:14.966Z,16.88
2018-03-31T10:03:14.689Z,16.78
2018-03-31T10:04:14.945Z,16.14
2018-03-31T10:05:14.406Z,15.92
2018-03-31T10:06:14.403Z,15.67
2018-03-31T10:07:14.929Z,15.56
2018-03-31T10:08:14.662Z,15.48
2018-03-31T10:09:15.196Z,15.41
2018-03-31T10:10:14.909Z,15.35
2018-03-31T10:11:14.901Z,15.23
2018-03-31T10:12:14.638Z,15.01
2018-03-31T10:13:14.622Z,14.84
2018-03-31T10:14:14.893Z,14.84
2018-03-31T10:15:14.882Z,14.65
2018-03-31T10:16:14.873Z,14.57
2018-03-31T10:17:14.598Z,14.44
2018-03-31T10:18:14.585Z,14.31
2018-03-31T10:19:14.849Z,14.35
2018-03-31T10:20:14.584Z,14.44
2018-03-31T10:21:14.563Z,14.42
2018-03-31T10:22:14.557Z,14.35
2018-03-31T10:23:14.281Z,14.29
2018-03-31T10:24:15.060Z,14.46
2018-03-31T10:25:14.804Z,14.71
2018-03-31T10:26:14.527Z,14.95
2018-03-31T10:27:14.512Z,15.28
2018-03-31T10:28:14.234Z,15.52
2018-03-31T10:29:14.713Z,15.89
2018-03-31T10:30:14.228Z,16.09
2018-03-31T10:31:14.216Z,16.27
2018-03-31T10:32:14.207Z,16.75
2018-03-31T10:33:14.459Z,17
2018-03-31T10:34:14.325Z,17.26
2018-03-31T10:35:14.534Z,17.51
2018-03-31T10:36:14.808Z,17.46
2018-03-31T10:37:14.165Z,17.79
2018-03-31T10:38:14.163Z,17.99
2018-03-31T10:39:14.683Z,18.17
2018-03-31T10:40:14.679Z,18.33
2018-03-31T10:41:14.683Z,18.52
2018-03-31T10:42:14.677Z,18.61
2018-03-31T10:43:14.486Z,18.31
2018-03-31T10:44:14.652Z,18.29
2018-03-31T10:45:14.523Z,18.21
2018-03-31T10:46:14.694Z,17.81
2018-03-31T10:47:14.639Z,17.55
2018-03-31T10:48:14.641Z,17.22
2018-03-31T10:49:14.696Z,17.03
2018-03-31T10:50:14.407Z,16.74
2018-03-31T10:51:14.691Z,16.34
2018-03-31T10:52:14.711Z,16.33
2018-03-31T10:53:14.673Z,16.58
2018-03-31T10:54:14.634Z,16.93
2018-03-31T10:55:14.333Z,17.06
2018-03-31T10:56:14.601Z,17.51
2018-03-31T10:57:14.597Z,17.89
2018-03-31T10:58:14.585Z,18.36
2018-03-31T10:59:14.309Z,18.72
2018-03-31T11:00:14.383Z,19.05
2018-03-31T11:01:14.346Z,19.28
2018-03-31T11:02:14.579Z,19.65
2018-03-31T11:03:14.315Z,19.88
2018-03-31T11:04:14.295Z,19.98
2018-03-31T11:05:14.563Z,19.98
2018-03-31T11:06:14.284Z,20
2018-03-31T11:07:14.565Z,20.1
2018-03-31T11:08:14.558Z,19.39
2018-03-31T11:09:14.275Z,19.25
2018-03-31T11:10:14.009Z,19.25
2018-03-31T11:11:14.279Z,19.39
2018-03-31T11:12:14.013Z,19.65
2018-03-31T11:13:14.323Z,19.68
2018-03-31T11:14:14.273Z,20.06
2018-03-31T11:15:14.651Z,20.27
2018-03-31T11:16:14.277Z,20.34
2018-03-31T11:17:14.015Z,19.32
2018-03-31T11:18:14.489Z,18.55
2018-03-31T11:19:14.539Z,18.49
2018-03-31T11:20:14.042Z,18.65
2018-03-31T11:21:14.010Z,18.91
2018-03-31T11:22:14.412Z,19.32
2018-03-31T11:23:14.544Z,19.54
2018-03-31T11:24:14.011Z,20
2018-03-31T11:25:14.289Z,20.25
2018-03-31T11:26:14.539Z,20.51
2018-03-31T11:27:14.548Z,20.8
2018-03-31T11:28:14.015Z,21.04
2018-03-31T11:29:14.542Z,21.46
2018-03-31T11:30:14.047Z,21.75
2018-03-31T11:31:14.279Z,22.04
2018-03-31T11:32:14.343Z,22.1
2018-03-31T11:33:14.553Z,22.31
2018-03-31T11:34:14.552Z,22.47
2018-03-31T11:35:14.288Z,22.72
2018-03-31T11:36:14.026Z,22.93
2018-03-31T11:37:14.563Z,23.23
2018-03-31T11:38:14.306Z,23.31
2018-03-31T11:39:14.050Z,23.27
2018-03-31T11:40:14.039Z,23.34
2018-03-31T11:41:14.635Z,23.14
2018-03-31T11:42:14.320Z,22.99
2018-03-31T11:43:14.424Z,22.56
2018-03-31T11:44:14.615Z,21.85
2018-03-31T11:45:14.435Z,21.3
2018-03-31T11:46:14.328Z,20.96
2018-03-31T11:47:14.349Z,20.68
2018-03-31T11:48:14.406Z,20.39
2018-03-31T11:49:14.658Z,20.42
2018-03-31T11:50:14.609Z,20.58
2018-03-31T11:51:14.350Z,20.58
2018-03-31T11:52:14.676Z,20.47
2018-03-31T11:53:14.351Z,20.68
2018-03-31T11:54:14.669Z,20.61
2018-03-31T11:55:14.413Z,20.43
2018-03-31T11:56:14.355Z,20.66
2018-03-31T11:57:14.405Z,21.01
2018-03-31T11:58:14.626Z,21.26
2018-03-31T11:59:14.691Z,21.53
2018-03-31T12:00:14.522Z,21.6
2018-03-31T12:01:14.370Z,21.54
2018-03-31T12:02:14.156Z,21.27
2018-03-31T12:03:14.392Z,21.27
2018-03-31T12:04:14.114Z,21.21
2018-03-31T12:05:14.688Z,21.08
2018-03-31T12:06:14.657Z,21.39
2018-03-31T12:07:14.700Z,21.56
2018-03-31T12:08:14.127Z,21.9
2018-03-31T12:09:14.600Z,21.85
2018-03-31T12:10:14.452Z,21.57
2018-03-31T12:11:14.405Z,21.54
2018-03-31T12:12:14.461Z,21.63
2018-03-31T12:13:14.717Z,21.79
2018-03-31T12:14:14.528Z,21.56
2018-03-31T12:15:14.523Z,21.54
2018-03-31T12:16:14.683Z,21.85
2018-03-31T12:17:14.420Z,22.01
2018-03-31T12:18:14.693Z,21.88
2018-03-31T12:19:14.423Z,21.92
2018-03-31T12:20:14.430Z,21.94
2018-03-31T12:21:14.801Z,22.27
2018-03-31T12:22:14.753Z,22.38
2018-03-31T12:23:14.468Z,22.43
2018-03-31T12:24:14.505Z,22.34
2018-03-31T12:25:14.778Z,22.67
2018-03-31T12:26:14.442Z,22.64
2018-03-31T12:27:14.524Z,21.85
2018-03-31T12:28:14.758Z,21.6
2018-03-31T12:29:14.255Z,21.24
2018-03-31T12:30:14.753Z,21.39
2018-03-31T12:31:14.546Z,21.59
2018-03-31T12:32:14.768Z,21.61
2018-03-31T12:33:14.480Z,21.98
2018-03-31T12:34:14.778Z,21.67
2018-03-31T12:35:14.799Z,21.98
2018-03-31T12:36:14.236Z,22.31
2018-03-31T12:37:14.706Z,22.37
2018-03-31T12:38:14.483Z,22.65
2018-03-31T12:39:14.484Z,23.05
2018-03-31T12:40:14.783Z,22.9
2018-03-31T12:41:14.485Z,23.29
2018-03-31T12:42:14.769Z,22.86
2018-03-31T12:43:14.233Z,23.04
2018-03-31T12:44:14.286Z,23.09
2018-03-31T12:45:14.513Z,23.49
2018-03-31T12:46:14.789Z,23.38
2018-03-31T12:47:14.567Z,23.04
2018-03-31T12:48:14.529Z,22.75
2018-03-31T12:49:14.522Z,22.32
2018-03-31T12:50:14.576Z,21.81
2018-03-31T12:51:14.541Z,21.63
2018-03-31T12:52:14.579Z,21.23
2018-03-31T12:53:14.272Z,21.24
2018-03-31T12:54:14.804Z,21.14
2018-03-31T12:55:14.298Z,20.83
2018-03-31T12:56:14.860Z,20.42
2018-03-31T12:57:14.596Z,19.23
2018-03-31T12:58:14.830Z,18.94
2018-03-31T12:59:14.828Z,18.61
2018-03-31T13:00:14.597Z,18.46
2018-03-31T13:01:14.610Z,18.65
2018-03-31T13:02:14.308Z,19.01
2018-03-31T13:03:14.557Z,19.83
2018-03-31T13:04:14.566Z,20.46
2018-03-31T13:05:14.629Z,21.06
2018-03-31T13:06:14.826Z,21.63
2018-03-31T13:07:14.291Z,22.09
2018-03-31T13:08:14.830Z,21.98
2018-03-31T13:09:14.838Z,21.82
2018-03-31T13:10:14.563Z,21.05
2018-03-31T13:11:14.577Z,20.59